Bedford Heights, Ohio
Current Conditions -  °F | °C
As of 1:45 PM on Tuesday 27 Jan 2015 (Local Time) from KCGF Reporting Station
Broken Clouds Broken Clouds  
Wind Chill:   Ceiling: 1400
Heat Index: 21°   Visibility: 20mi
Dew Point: 14°   Wind: 13mph
Humidity: 74%   Direction: 10°N
Pressure: 30.05"   Gusts: NA
Location:  41.41°N, 81.5°W
Report Text: KCGF 271845Z 01011KT 20SM BKN014 BKN080 M06/M10 A3005
Loading
Personal Weather Stations






























Interactive Weather Map New forecast layout! Learn more

10-Day Weather Forecast

Advertisements
Track Severe Weather on mobile